Have a Safe July 4th! 

Flight Track Log - Related Links

Times and Time Zones

All times are in EDT time to prevent confusion due to time zone crossing. See the TCF3494 flight status page for this flight to view local times or setup timezone preferences in your user account.

Time Position Orientation Groundspeed Altitude Reporting Facility
EDT Latitude Longitude Course Direction KTS MPH feet Rate Location/Type
Tue 04:17:40 PM 42.0000 -87.8500 90° East 167 192 2,200  Level Chicago TRACON
Tue 04:18:40 PM 42.0000 -87.7667 90° East 246 283 4,000 2,182 Climbing Chicago TRACON
Tue 04:19:41 PM 42.0000 -87.6667 90° East 278 320 6,600 2,870 Climbing Chicago TRACON
Tue 04:20:35 PM 41.9833 -87.5833 105° East 292 336 9,500 2,629 Climbing Chicago TRACON
Tue 04:22:39 PM 41.9678 -87.3439 95° East 333 383 14,400 2,419 Climbing Chicago Center
Tue 04:23:41 PM 41.9578 -87.2117 96° East 350 403 17,000 2,419 Climbing Chicago Center
Tue 04:24:43 PM 41.9478 -87.0419 94° East 375 432 19,400 2,274 Climbing Chicago Center
Tue 04:25:45 PM 41.9494 -86.8939 89° East 394 453 21,700 2,032 Climbing Chicago Center
Tue 04:26:47 PM 41.9506 -86.7400 89° East 407 468 23,600 1,839 Climbing Chicago Center
Tue 04:27:49 PM 41.9522 -86.5786 89° East 426 490 25,500 1,500 Climbing Chicago Center
Tue 04:28:51 PM 41.9539 -86.4133 89° East 438 504 26,700 726 Climbing Chicago Center
Tue 04:29:53 PM 41.9553 -86.2481 89° East 443 510 27,000 145 Climbing Chicago Center
Tue 04:30:55 PM 41.9433 -86.0828 95° East 443 510 27,000  Level Chicago Center
Tue 04:31:57 PM 41.9247 -85.8858 97° East 443 510 27,000 194 Level Chicago Center
Tue 04:32:59 PM 41.9094 -85.7214 97° East 443 510 27,400 871 Climbing Chicago Center
Tue 04:34:01 PM 41.8936 -85.5569 97° East 442 509 28,800 1,210 Climbing Chicago Center
Tue 04:35:03 PM 41.8772 -85.3883 97° East 449 517 29,900 1,210 Climbing Chicago Center
Tue 04:36:05 PM 41.8603 -85.2186 98° East 452 520 31,300 1,113 Climbing Chicago Center
Tue 04:37:07 PM 41.8436 -85.0461 97° East 462 532 32,200 1,065 Climbing Chicago Center
Tue 04:38:09 PM 41.8256 -84.8719 98° East 470 541 33,500 1,161 Climbing Chicago Center
Tue 04:39:11 PM 41.8067 -84.7022 98° East 464 534 34,600 714 Climbing Chicago Center
Tue 04:40:15 PM 41.7850 -84.4850 98° East 465 535 35,000 194 Climbing Cleveland Center
Tue 04:41:15 PM 41.7786 -84.3064 93° East 470 541 35,000  Level Cleveland Center
Tue 04:42:15 PM 41.7731 -84.1472 93° East 470 541 35,000  Level Cleveland Center
Tue 04:43:15 PM 41.7703 -83.9689 91° East 476 548 35,000  Level Cleveland Center
Tue 04:44:15 PM 41.7714 -83.7878 89° East 476 548 35,000  Level Cleveland Center
Tue 04:45:15 PM 41.7681 -83.6039 91° East 481 554 35,000  Level Cleveland Center
Tue 04:46:15 PM 41.7558 -83.4253 95° East 481 554 35,000  Level Cleveland Center
Tue 04:47:15 PM 41.7358 -83.2211 97° East 486 559 35,000  Level Cleveland Center
Tue 04:48:15 PM 41.7189 -83.0397 97° East 486 559 35,000  Level Cleveland Center
Tue 04:49:15 PM 41.7019 -82.8553 97° East 486 559 35,000  Level Cleveland Center
Tue 04:50:15 PM 41.6803 -82.6739 99° East 491 565 35,000  Level Cleveland Center
Tue 04:51:15 PM 41.6628 -82.4897 97° East 491 565 35,000  Level Cleveland Center
Tue 04:52:15 PM 41.6447 -82.3086 98° East 491 565 35,000  Level Cleveland Center
Tue 04:53:15 PM 41.6261 -82.1442 99° East 499 574 35,000  Level Cleveland Center
Tue 04:54:15 PM 41.6078 -81.9633 98° East 499 574 35,000  Level Cleveland Center
Tue 04:55:15 PM 41.5869 -81.7797 99° East 499 574 35,000  Level Cleveland Center
Tue 04:56:15 PM 41.5656 -81.5961 99° East 499 574 35,000  Level Cleveland Center
Tue 04:57:15 PM 41.5444 -81.3961 98° East 499 574 35,000  Level Cleveland Center
Tue 04:58:15 PM 41.5225 -81.2183 99° East 499 574 35,000  Level Cleveland Center
Tue 04:59:15 PM 41.5047 -81.0378 97° East 499 574 35,000  Level Cleveland Center
Tue 05:00:15 PM 41.4886 -80.8575 97° East 493 567 35,000  Level Cleveland Center
Tue 05:01:15 PM 41.4722 -80.6800 97° East 483 556 35,000  Level Cleveland Center
Tue 05:02:15 PM 41.4575 -80.5056 96° East 478 550 35,000  Level Cleveland Center
Tue 05:03:15 PM 41.4408 -80.3478 98° East 478 550 35,000  Level Cleveland Center
Tue 05:04:15 PM 41.4256 -80.1539 96° East 483 556 35,000  Level Cleveland Center
Tue 05:05:15 PM 41.4103 -79.9822 97° East 478 550 35,000  Level Cleveland Center
Tue 05:06:15 PM 41.3925 -79.8275 99° East 473 544 35,000  Level Cleveland Center
Tue 05:07:15 PM 41.3747 -79.6533 98° East 473 544 35,000  Level Cleveland Center
Tue 05:08:15 PM 41.3583 -79.4600 96° East 473 544 35,000  Level Cleveland Center
Tue 05:09:15 PM 41.3397 -79.2889 98° East 473 544 35,000  Level Cleveland Center
Tue 05:10:15 PM 41.3214 -79.1317 99° East 473 544 35,000  Level Cleveland Center
Tue 05:11:15 PM 41.3044 -78.9606 97° East 473 544 35,000  Level Cleveland Center
Tue 05:12:15 PM 41.2847 -78.7706 98° East 473 544 35,000  Level Cleveland Center
Tue 05:13:15 PM 41.2653 -78.5969 98° East 473 544 35,000  Level Cleveland Center
Tue 05:14:15 PM 41.2475 -78.4261 98° East 473 544 35,000  Level Cleveland Center
Tue 05:15:22 PM 41.2261 -78.2364 98° East 475 547 35,000  Level New York Center
Tue 05:16:22 PM 41.2058 -78.0631 99° East 469 540 35,000  Level New York Center
Tue 05:17:23 PM 41.1825 -77.8950 100° East 469 540 35,000  Level New York Center
Tue 05:18:23 PM 41.1636 -77.7250 98° East 469 540 35,000  Level New York Center
Tue 05:19:24 PM 41.1419 -77.5572 100° East 469 540 35,000  Level New York Center
Tue 05:20:22 PM 41.1186 -77.3814 100° East 474 545 35,000 -403 Level New York Center
Tue 05:21:23 PM 41.0944 -77.2139 101° East 474 545 34,200 -1,721 Descending New York Center
Tue 05:22:24 PM 41.0722 -77.0436 100° East 474 545 31,500 -2,678 Descending New York Center
Tue 05:23:24 PM 41.0500 -76.8739 100° East 474 545 28,800 -2,769 Descending New York Center
Tue 05:24:21 PM 41.0269 -76.7122 101° East 469 540 26,100 -2,695 Descending New York Center
Tue 05:25:22 PM 40.9933 -76.5497 105° East 462 532 23,500 -2,508 Descending New York Center
Tue 05:26:23 PM 40.9586 -76.4039 107° East 442 509 21,000 -2,579 Descending New York Center
Tue 05:27:23 PM 40.9261 -76.2556 106° East 422 486 18,300 -2,050 Descending New York Center
Tue 05:28:23 PM 40.8906 -76.1183 109° East 401 461 16,900 -694 Descending New York Center
Tue 05:29:24 PM 40.8592 -75.9842 107° East 387 445 16,900 -595 Level New York Center
Tue 05:30:24 PM 40.8269 -75.8608 109° East 387 445 15,700 -1,744 Descending New York Center
Tue 05:31:21 PM 40.7917 -75.7131 107° East 387 445 13,500 -1,424 Descending New York Center
Tue 05:32:22 PM 40.7611 -75.5903 108° East 372 428 12,900 -295 Descending New York Center
Tue 05:33:23 PM 40.7328 -75.4706 107° East 372 428 12,900 -347 Level New York Center
Tue 05:34:23 PM 40.6900 -75.3333 112° Southeast 391 450 12,200 -908 Descending New York Center
Tue 05:35:22 PM 40.6372 -75.1903 116° Southeast 397 457 11,100 -1,008 Descending New York Center
Tue 05:36:22 PM 40.5897 -75.0644 116° Southeast 397 457 10,200 -545 Descending New York Center
Tue 05:37:23 PM 40.5467 -74.9333 113° Southeast 392 451 10,000 -98 Descending New York Center
Tue 05:38:24 PM 40.5111 -74.8136 111° Southeast 386 444 10,000  Level New York Center
Tue 05:39:22 PM 40.4658 -74.6719 113° Southeast 381 438 10,000 80 Level New York Center
Tue 05:39:39 PM 40.4500 -74.6333 118° Southeast 385 443 10,100  Climbing New York TRACON
Tue 05:40:33 PM 40.4333 -74.5167 101° East 386 444 10,000 -579 Descending New York TRACON
Tue 05:41:33 PM 40.4667 -74.4000 69° East 326 375 9,000 -1,200 Descending New York TRACON
Tue 05:42:33 PM 40.5000 -74.2833 69° East 313 360 7,600 -1,053 Descending New York TRACON
Tue 05:43:27 PM 40.5000 -74.1833 90° East 306 352 7,000 -789 Descending New York TRACON
Tue 05:44:27 PM 40.5500 -74.1000 52° Northeast 297 342 6,100 -1,000 Descending New York TRACON
Tue 05:45:27 PM 40.6167 -74.0500 30° Northeast 283 326 5,000 -1,000 Descending New York TRACON
Tue 05:46:27 PM 40.6833 -74.0333 11° North 289 333 4,100 -500 Descending New York TRACON
Tue 05:47:27 PM 40.7667 -74.0000 17° North 291 335 4,000 -150 Descending New York TRACON
Tue 05:48:27 PM 40.8333 -73.9333 37° Northeast 296 341 3,800 -400 Descending New York TRACON
Tue 05:49:27 PM 40.9000 -73.8667 37° Northeast 278 320 3,200 -500 Descending New York TRACON
Tue 05:50:27 PM 40.9167 -73.8000 72° East 223 257 2,800 -700 Descending New York TRACON
Tue 05:51:27 PM 40.8667 -73.8000 180° South 152 175 1,800 -750 Descending New York TRACON
Tue 05:52:27 PM 40.8333 -73.8333 217° Southwest 114 131 1,300 -500 Descending New York TRACON

Login

Don't have an account? Register now (free) for customized features, flight alerts, and more!